Terminal Aerodrome Forecast
Issued by NWS Boise, ID

Home | Current Version | Previous Version | Text Only | Print | Product List | Glossary On
Versions: 1 2 3 4 5 6 7 8 9 10 11 12 13 14 15 16 17 18 19 20 21 22 23 24 25 26 27 28 29 30 31 32 33
000
FTUS45 KBOI 160349 AAB
TAFBNO
TAF AMD
KBNO 160349Z 1604/1624 VRB06KT P6SM SCT120
     FM160700 25005KT P6SM BKN100
     FM161200 VRB05KT P6SM SCT100 BKN150
     FM162000 17008KT P6SM SCT120=

USA.gov is the U.S. government's official web portal to all federal, state and local government web resources and services.